Flight Track Log - Related Links

Times and Time Zones

All times are in EDT time to prevent confusion due to time zone crossing. See the ENY3182 flight status page for this flight to view local times or setup timezone preferences in your user account.

Time Position Orientation Groundspeed Altitude Reporting Facility
EDT Latitude Longitude Course Direction KTS MPH feet Rate Location/Type
Fri 02:25:17 PM 32.8833 -97.0333 North 177 204 900  Level Dallas / Fort Worth TRACON
Fri 02:25:59 PM 32.8500 -97.0333 180° South 192 221 2,400 2,020 Climbing Dallas / Fort Worth TRACON
Fri 02:26:55 PM 32.8072 -97.0094 155° Southeast 200 230 4,200 1,678 Climbing Fort Worth Center
Fri 02:27:57 PM 32.7686 -96.9528 129° Southeast 237 273 5,700 1,680 Climbing Fort Worth Center
Fri 02:28:00 PM 33.2271 -96.6889 41° Northeast  Level Estimated
Fri 02:29:00 PM 33.3049 -96.7824 315° West  Level FlightAware Approximate
Fri 02:29:00 PM 32.7714 -96.8511 88° East 284 327 7,700  Level Fort Worth Center
Fri 02:30:00 PM 33.4424 -96.8167 North  Level FlightAware Approximate
Fri 02:30:02 PM 32.8447 -96.8117 24° Northeast 292 336 9,600  Level Fort Worth Center
Fri 02:31:04 PM 32.9328 -96.8089 North 321 369 10,500 871 Climbing Fort Worth Center
Fri 02:32:06 PM 33.0414 -96.8103 359° North 358 412 11,400 1,016 Climbing Fort Worth Center
Fri 02:33:08 PM 33.1464 -96.8139 358° North 371 427 12,600 1,355 Climbing Fort Worth Center
Fri 02:34:10 PM 33.2594 -96.8169 359° North 374 430 14,200 1,452 Climbing Fort Worth Center
Fri 02:35:12 PM 33.3614 -96.8194 359° North 370 426 15,600 1,392 Climbing Fort Worth Center
Fri 02:36:15 PM 33.4631 -96.8136 North 364 419 17,100 1,440 Climbing Fort Worth Center
Fri 02:37:17 PM 33.5622 -96.7514 28° Northeast 371 427 18,600 919 Climbing Fort Worth Center
Fri 02:38:19 PM 33.6547 -96.6917 28° Northeast 379 436 19,000 194 Climbing Fort Worth Center
Fri 02:39:21 PM 33.7631 -96.6217 28° Northeast 408 470 19,000  Level Fort Worth Center
Fri 02:40:23 PM 33.8692 -96.5525 28° Northeast 414 476 19,000 97 Level Fort Worth Center
Fri 02:41:25 PM 33.9714 -96.4872 28° Northeast 415 478 19,200 720 Climbing Fort Worth Center
Fri 02:42:28 PM 34.0717 -96.4208 29° Northeast 414 476 20,500 1,344 Climbing Fort Worth Center
Fri 02:43:30 PM 34.1606 -96.3483 34° Northeast 402 463 22,000 1,210 Climbing Fort Worth Center
Fri 02:44:32 PM 34.2419 -96.2669 40° Northeast 388 447 23,000 484 Climbing Fort Worth Center
Fri 02:45:34 PM 34.3189 -96.1317 55° Northeast 402 463 23,000  Level Fort Worth Center
Fri 02:46:36 PM 34.3881 -96.0156 54° Northeast 420 483 23,000  Level Fort Worth Center
Fri 02:47:38 PM 34.4583 -95.8961 54° Northeast 431 496 23,000  Level Fort Worth Center
Fri 02:48:40 PM 34.5275 -95.7767 55° Northeast 433 498 23,000  Level Fort Worth Center
Fri 02:49:43 PM 34.5975 -95.6583 54° Northeast 433 498 23,000  Level Fort Worth Center
Fri 02:50:45 PM 34.6694 -95.5342 55° Northeast 433 498 23,000  Level Fort Worth Center
Fri 02:51:47 PM 34.7533 -95.3897 55° Northeast 434 499 23,000 -968 Level Fort Worth Center
Fri 02:52:49 PM 34.8225 -95.2703 55° Northeast 434 499 21,000 -2,419 Descending Fort Worth Center
Fri 02:53:51 PM 34.8903 -95.1517 55° Northeast 420 483 18,000 -2,903 Descending Fort Worth Center
Fri 02:54:53 PM 34.9564 -95.0358 55° Northeast 404 465 15,000 -2,592 Descending Fort Worth Center
Fri 02:55:56 PM 35.0158 -94.9217 58° Northeast 383 441 12,600 -1,943 Descending Fort Worth Center
Fri 02:56:38 PM 35.0525 -94.8439 60° Northeast 379 436 11,600 -1,269 Descending Memphis Center
Fri 02:57:40 PM 35.1039 -94.7378 59° Northeast 370 426 10,400 -1,065 Descending Memphis Center
Fri 02:58:42 PM 35.1469 -94.6483 59° Northeast 323 372 9,400 -1,210 Descending Memphis Center
Fri 02:59:44 PM 35.1889 -94.5619 59° Northeast 301 346 7,900 -1,403 Descending Memphis Center
Fri 03:00:46 PM 35.2269 -94.4792 61° Northeast 288 331 6,500 -1,548 Descending Memphis Center
Fri 03:01:48 PM 35.2564 -94.3747 71° East 278 320 4,700 -1,548 Descending Memphis Center
Fri 03:02:50 PM 35.2614 -94.2861 86° East 268 308 3,300 -1,152 Descending Memphis Center
Fri 03:03:53 PM 35.3144 -94.2603 22° Northeast 252 290 2,300 -960 Descending Memphis Center
Fri 03:04:55 PM 35.3411 -94.3092 304° West 207 238 1,300 -968 Descending Memphis Center

Login

Don't have an account? Register now (free) for customized features, flight alerts, and more!